sensor_id;sensor_type;location;lat;lon;timestamp;temperature;humidity
16655;DHT22;8441;51.344;7.022;2023-07-13T00:01:52;16.50;99.90
16655;DHT22;8441;51.344;7.022;2023-07-13T00:04:20;16.50;99.90
16655;DHT22;8441;51.344;7.022;2023-07-13T00:06:49;16.60;99.90
16655;DHT22;8441;51.344;7.022;2023-07-13T00:09:17;16.50;99.90
16655;DHT22;8441;51.344;7.022;2023-07-13T00:11:49;16.50;99.90
16655;DHT22;8441;51.344;7.022;2023-07-13T00:14:16;16.50;99.90
16655;DHT22;8441;51.344;7.022;2023-07-13T00:16:44;16.50;99.90
16655;DHT22;8441;51.344;7.022;2023-07-13T00:19:12;16.50;99.90
16655;DHT22;8441;51.344;7.022;2023-07-13T00:21:40;16.40;99.90
16655;DHT22;8441;51.344;7.022;2023-07-13T00:24:07;16.50;99.90
16655;DHT22;8441;51.344;7.022;2023-07-13T00:26:35;16.50;99.90
16655;DHT22;8441;51.344;7.022;2023-07-13T00:29:04;16.50;99.90
16655;DHT22;8441;51.344;7.022;2023-07-13T00:31:34;16.50;99.90
16655;DHT22;8441;51.344;7.022;2023-07-13T00:34:02;16.50;99.90
16655;DHT22;8441;51.344;7.022;2023-07-13T00:36:30;16.50;99.90
16655;DHT22;8441;51.344;7.022;2023-07-13T00:38:58;16.50;99.90
16655;DHT22;8441;51.344;7.022;2023-07-13T00:41:25;16.30;99.90
16655;DHT22;8441;51.344;7.022;2023-07-13T00:43:52;16.20;99.90
16655;DHT22;8441;51.344;7.022;2023-07-13T00:46:26;16.10;99.90
16655;DHT22;8441;51.344;7.022;2023-07-13T00:48:56;16.10;99.90
16655;DHT22;8441;51.344;7.022;2023-07-13T00:51:29;16.10;99.90
16655;DHT22;8441;51.344;7.022;2023-07-13T00:53:59;16.10;99.90
16655;DHT22;8441;51.344;7.022;2023-07-13T00:56:28;16.10;99.90
16655;DHT22;8441;51.344;7.022;2023-07-13T00:58:56;16.10;99.90
16655;DHT22;8441;51.344;7.022;2023-07-13T01:01:26;16.20;99.90
16655;DHT22;8441;51.344;7.022;2023-07-13T01:03:53;16.30;99.90
16655;DHT22;8441;51.344;7.022;2023-07-13T01:06:22;16.20;99.90
16655;DHT22;8441;51.344;7.022;2023-07-13T01:08:50;16.20;99.90
16655;DHT22;8441;51.344;7.022;2023-07-13T01:11:19;16.20;99.90
16655;DHT22;8441;51.344;7.022;2023-07-13T01:13:47;16.00;99.90
16655;DHT22;8441;51.344;7.022;2023-07-13T01:16:25;16.00;99.90
16655;DHT22;8441;51.344;7.022;2023-07-13T01:18:52;16.00;99.90
16655;DHT22;8441;51.344;7.022;2023-07-13T01:21:21;16.00;99.90
16655;DHT22;8441;51.344;7.022;2023-07-13T01:23:48;16.00;99.90
16655;DHT22;8441;51.344;7.022;2023-07-13T01:26:15;16.00;99.90
16655;DHT22;8441;51.344;7.022;2023-07-13T01:28:42;15.90;99.90
16655;DHT22;8441;51.344;7.022;2023-07-13T01:31:10;15.90;99.90
16655;DHT22;8441;51.344;7.022;2023-07-13T01:33:38;15.90;99.90
16655;DHT22;8441;51.344;7.022;2023-07-13T01:36:06;15.90;99.90
16655;DHT22;8441;51.344;7.022;2023-07-13T01:38:36;15.90;99.90
16655;DHT22;8441;51.344;7.022;2023-07-13T01:41:03;15.90;99.90
16655;DHT22;8441;51.344;7.022;2023-07-13T01:43:31;15.70;99.90
16655;DHT22;8441;51.344;7.022;2023-07-13T01:45:58;15.70;99.90
16655;DHT22;8441;51.344;7.022;2023-07-13T01:48:25;15.80;99.90
16655;DHT22;8441;51.344;7.022;2023-07-13T01:50:52;15.70;99.90
16655;DHT22;8441;51.344;7.022;2023-07-13T01:53:20;15.70;99.90
16655;DHT22;8441;51.344;7.022;2023-07-13T01:55:49;15.60;99.90
16655;DHT22;8441;51.344;7.022;2023-07-13T01:58:15;15.60;99.90
16655;DHT22;8441;51.344;7.022;2023-07-13T02:00:42;15.60;99.90
16655;DHT22;8441;51.344;7.022;2023-07-13T02:03:09;15.50;99.90
16655;DHT22;8441;51.344;7.022;2023-07-13T02:05:36;15.50;99.90
16655;DHT22;8441;51.344;7.022;2023-07-13T02:08:04;15.50;99.90
16655;DHT22;8441;51.344;7.022;2023-07-13T02:10:31;15.50;99.90
16655;DHT22;8441;51.344;7.022;2023-07-13T02:12:59;15.60;99.90
16655;DHT22;8441;51.344;7.022;2023-07-13T02:15:27;15.50;99.90
16655;DHT22;8441;51.344;7.022;2023-07-13T02:17:54;15.50;99.90
16655;DHT22;8441;51.344;7.022;2023-07-13T02:20:22;15.50;99.90
16655;DHT22;8441;51.344;7.022;2023-07-13T02:22:49;15.50;99.90
16655;DHT22;8441;51.344;7.022;2023-07-13T02:25:17;15.50;99.90
16655;DHT22;8441;51.344;7.022;2023-07-13T02:27:44;15.50;99.90
16655;DHT22;8441;51.344;7.022;2023-07-13T02:30:13;15.40;99.90
16655;DHT22;8441;51.344;7.022;2023-07-13T02:32:40;15.30;99.90
16655;DHT22;8441;51.344;7.022;2023-07-13T02:35:09;15.30;99.90
16655;DHT22;8441;51.344;7.022;2023-07-13T02:37:36;15.30;99.90
16655;DHT22;8441;51.344;7.022;2023-07-13T02:40:05;15.20;99.90
16655;DHT22;8441;51.344;7.022;2023-07-13T02:42:34;15.20;99.90
16655;DHT22;8441;51.344;7.022;2023-07-13T02:45:01;15.30;99.90
16655;DHT22;8441;51.344;7.022;2023-07-13T02:47:31;15.30;99.90
16655;DHT22;8441;51.344;7.022;2023-07-13T02:49:58;15.20;99.90
16655;DHT22;8441;51.344;7.022;2023-07-13T02:52:26;15.20;99.90
16655;DHT22;8441;51.344;7.022;2023-07-13T02:54:53;15.20;99.90
16655;DHT22;8441;51.344;7.022;2023-07-13T02:57:20;15.20;99.90
16655;DHT22;8441;51.344;7.022;2023-07-13T02:59:47;15.10;99.90
16655;DHT22;8441;51.344;7.022;2023-07-13T03:02:15;15.10;99.90
16655;DHT22;8441;51.344;7.022;2023-07-13T03:04:45;15.00;99.90
16655;DHT22;8441;51.344;7.022;2023-07-13T03:07:12;15.00;99.90
16655;DHT22;8441;51.344;7.022;2023-07-13T03:09:39;15.00;99.90
16655;DHT22;8441;51.344;7.022;2023-07-13T03:12:07;15.00;99.90
16655;DHT22;8441;51.344;7.022;2023-07-13T03:14:47;15.00;99.90
16655;DHT22;8441;51.344;7.022;2023-07-13T03:17:14;15.00;99.90
16655;DHT22;8441;51.344;7.022;2023-07-13T03:19:41;15.00;99.90
16655;DHT22;8441;51.344;7.022;2023-07-13T03:22:10;15.00;99.90
16655;DHT22;8441;51.344;7.022;2023-07-13T03:24:38;14.80;99.90
16655;DHT22;8441;51.344;7.022;2023-07-13T03:27:06;14.80;99.90
16655;DHT22;8441;51.344;7.022;2023-07-13T03:29:33;14.80;99.90
16655;DHT22;8441;51.344;7.022;2023-07-13T03:32:00;14.90;99.90
16655;DHT22;8441;51.344;7.022;2023-07-13T03:34:27;14.90;99.90
16655;DHT22;8441;51.344;7.022;2023-07-13T03:36:55;14.90;99.90
16655;DHT22;8441;51.344;7.022;2023-07-13T03:39:23;14.90;99.90
16655;DHT22;8441;51.344;7.022;2023-07-13T03:41:50;14.90;99.90
16655;DHT22;8441;51.344;7.022;2023-07-13T03:44:18;14.90;99.90
16655;DHT22;8441;51.344;7.022;2023-07-13T03:46:45;15.00;99.90
16655;DHT22;8441;51.344;7.022;2023-07-13T03:49:12;15.00;99.90
16655;DHT22;8441;51.344;7.022;2023-07-13T03:51:39;15.00;99.90
16655;DHT22;8441;51.344;7.022;2023-07-13T03:54:06;15.00;99.90
16655;DHT22;8441;51.344;7.022;2023-07-13T03:56:35;14.90;99.90
16655;DHT22;8441;51.344;7.022;2023-07-13T03:59:02;15.00;99.90
16655;DHT22;8441;51.344;7.022;2023-07-13T04:01:30;15.00;99.90
16655;DHT22;8441;51.344;7.022;2023-07-13T04:03:57;15.00;99.90
16655;DHT22;8441;51.344;7.022;2023-07-13T04:06:28;15.00;99.90
16655;DHT22;8441;51.344;7.022;2023-07-13T04:08:57;15.10;99.90
16655;DHT22;8441;51.344;7.022;2023-07-13T04:11:26;15.10;99.90
16655;DHT22;8441;51.344;7.022;2023-07-13T04:13:55;15.10;99.90
16655;DHT22;8441;51.344;7.022;2023-07-13T04:16:24;15.10;99.90
16655;DHT22;8441;51.344;7.022;2023-07-13T04:18:51;15.30;99.90
16655;DHT22;8441;51.344;7.022;2023-07-13T04:21:20;15.40;99.90
16655;DHT22;8441;51.344;7.022;2023-07-13T04:23:48;15.40;99.90
16655;DHT22;8441;51.344;7.022;2023-07-13T04:26:15;15.40;99.90
16655;DHT22;8441;51.344;7.022;2023-07-13T04:28:42;15.60;99.90
16655;DHT22;8441;51.344;7.022;2023-07-13T04:31:11;15.60;99.90
16655;DHT22;8441;51.344;7.022;2023-07-13T04:33:38;15.70;99.90
16655;DHT22;8441;51.344;7.022;2023-07-13T04:36:05;15.90;99.90
16655;DHT22;8441;51.344;7.022;2023-07-13T04:38:35;16.00;99.90
16655;DHT22;8441;51.344;7.022;2023-07-13T04:41:04;16.10;99.90
16655;DHT22;8441;51.344;7.022;2023-07-13T04:43:32;16.20;99.90
16655;DHT22;8441;51.344;7.022;2023-07-13T04:46:03;16.40;99.90
16655;DHT22;8441;51.344;7.022;2023-07-13T04:48:32;16.30;99.90
16655;DHT22;8441;51.344;7.022;2023-07-13T04:51:00;16.30;99.90
16655;DHT22;8441;51.344;7.022;2023-07-13T04:53:28;16.40;99.90
16655;DHT22;8441;51.344;7.022;2023-07-13T04:55:56;16.40;99.90
16655;DHT22;8441;51.344;7.022;2023-07-13T04:58:24;16.40;99.90
16655;DHT22;8441;51.344;7.022;2023-07-13T05:00:52;16.50;99.90
16655;DHT22;8441;51.344;7.022;2023-07-13T05:03:19;16.70;99.90
16655;DHT22;8441;51.344;7.022;2023-07-13T05:05:57;16.80;99.90
16655;DHT22;8441;51.344;7.022;2023-07-13T05:08:24;16.80;99.90
16655;DHT22;8441;51.344;7.022;2023-07-13T05:10:52;16.70;99.90
16655;DHT22;8441;51.344;7.022;2023-07-13T05:13:19;16.80;99.90
16655;DHT22;8441;51.344;7.022;2023-07-13T05:15:47;17.00;99.90
16655;DHT22;8441;51.344;7.022;2023-07-13T05:18:14;16.90;99.90
16655;DHT22;8441;51.344;7.022;2023-07-13T05:20:41;16.80;99.90
16655;DHT22;8441;51.344;7.022;2023-07-13T05:23:10;16.80;99.90
16655;DHT22;8441;51.344;7.022;2023-07-13T05:25:37;16.90;99.90
16655;DHT22;8441;51.344;7.022;2023-07-13T05:28:04;16.90;99.90
16655;DHT22;8441;51.344;7.022;2023-07-13T05:30:31;17.00;99.90
16655;DHT22;8441;51.344;7.022;2023-07-13T05:32:59;17.10;99.90
16655;DHT22;8441;51.344;7.022;2023-07-13T05:35:26;17.30;99.90
16655;DHT22;8441;51.344;7.022;2023-07-13T05:37:53;17.30;99.90
16655;DHT22;8441;51.344;7.022;2023-07-13T05:40:22;17.40;99.90
16655;DHT22;8441;51.344;7.022;2023-07-13T05:42:49;17.40;99.90
16655;DHT22;8441;51.344;7.022;2023-07-13T05:45:16;17.50;99.90
16655;DHT22;8441;51.344;7.022;2023-07-13T05:47:43;17.60;99.90
16655;DHT22;8441;51.344;7.022;2023-07-13T05:50:10;17.50;99.90
16655;DHT22;8441;51.344;7.022;2023-07-13T05:52:37;17.50;99.90
16655;DHT22;8441;51.344;7.022;2023-07-13T05:55:05;17.50;99.90
16655;DHT22;8441;51.344;7.022;2023-07-13T05:57:34;17.70;99.90
16655;DHT22;8441;51.344;7.022;2023-07-13T06:00:01;17.80;99.90
16655;DHT22;8441;51.344;7.022;2023-07-13T06:02:28;17.90;99.90
16655;DHT22;8441;51.344;7.022;2023-07-13T06:04:56;18.00;99.90
16655;DHT22;8441;51.344;7.022;2023-07-13T06:07:23;18.10;99.90
16655;DHT22;8441;51.344;7.022;2023-07-13T06:09:50;18.30;99.90
16655;DHT22;8441;51.344;7.022;2023-07-13T06:12:17;18.30;99.90
16655;DHT22;8441;51.344;7.022;2023-07-13T06:14:46;18.30;99.90
16655;DHT22;8441;51.344;7.022;2023-07-13T06:17:13;18.20;99.90
16655;DHT22;8441;51.344;7.022;2023-07-13T06:19:40;18.30;99.90
16655;DHT22;8441;51.344;7.022;2023-07-13T06:22:07;18.30;99.90
16655;DHT22;8441;51.344;7.022;2023-07-13T06:24:34;18.40;99.90
16655;DHT22;8441;51.344;7.022;2023-07-13T06:27:01;18.70;99.90
16655;DHT22;8441;51.344;7.022;2023-07-13T06:29:29;18.80;99.90
16655;DHT22;8441;51.344;7.022;2023-07-13T06:31:58;18.90;99.90
16655;DHT22;8441;51.344;7.022;2023-07-13T06:34:25;19.30;99.90
16655;DHT22;8441;51.344;7.022;2023-07-13T06:36:52;19.70;99.90
16655;DHT22;8441;51.344;7.022;2023-07-13T06:39:19;20.00;99.90
16655;DHT22;8441;51.344;7.022;2023-07-13T06:41:47;19.90;99.90
16655;DHT22;8441;51.344;7.022;2023-07-13T06:44:14;19.80;99.90
16655;DHT22;8441;51.344;7.022;2023-07-13T06:46:41;19.60;99.90
16655;DHT22;8441;51.344;7.022;2023-07-13T06:49:10;19.10;99.90
16655;DHT22;8441;51.344;7.022;2023-07-13T06:51:37;18.90;99.90
16655;DHT22;8441;51.344;7.022;2023-07-13T06:54:04;18.50;99.90
16655;DHT22;8441;51.344;7.022;2023-07-13T06:56:31;18.40;99.90
16655;DHT22;8441;51.344;7.022;2023-07-13T06:58:58;18.40;99.90
16655;DHT22;8441;51.344;7.022;2023-07-13T07:01:26;18.40;99.90
16655;DHT22;8441;51.344;7.022;2023-07-13T07:03:53;18.60;99.90
16655;DHT22;8441;51.344;7.022;2023-07-13T07:06:22;18.70;99.90
16655;DHT22;8441;51.344;7.022;2023-07-13T07:08:50;18.80;99.90
16655;DHT22;8441;51.344;7.022;2023-07-13T07:11:19;19.00;99.90
16655;DHT22;8441;51.344;7.022;2023-07-13T07:13:48;19.30;99.90
16655;DHT22;8441;51.344;7.022;2023-07-13T07:16:15;19.40;99.90
16655;DHT22;8441;51.344;7.022;2023-07-13T07:18:43;19.40;99.90
16655;DHT22;8441;51.344;7.022;2023-07-13T07:21:10;19.40;99.90
16655;DHT22;8441;51.344;7.022;2023-07-13T07:23:38;19.40;99.90
16655;DHT22;8441;51.344;7.022;2023-07-13T07:26:06;19.60;99.90
16655;DHT22;8441;51.344;7.022;2023-07-13T07:28:35;19.70;99.90
16655;DHT22;8441;51.344;7.022;2023-07-13T07:31:03;19.60;99.90
16655;DHT22;8441;51.344;7.022;2023-07-13T07:33:30;20.00;99.90
16655;DHT22;8441;51.344;7.022;2023-07-13T07:35:57;20.50;99.90
16655;DHT22;8441;51.344;7.022;2023-07-13T07:38:24;20.70;99.90
16655;DHT22;8441;51.344;7.022;2023-07-13T07:40:53;20.80;99.90
16655;DHT22;8441;51.344;7.022;2023-07-13T07:43:20;20.50;99.90
16655;DHT22;8441;51.344;7.022;2023-07-13T07:45:47;20.50;99.90
16655;DHT22;8441;51.344;7.022;2023-07-13T07:48:15;20.60;99.90
16655;DHT22;8441;51.344;7.022;2023-07-13T07:50:42;20.50;99.90
16655;DHT22;8441;51.344;7.022;2023-07-13T07:53:10;20.50;99.90
16655;DHT22;8441;51.344;7.022;2023-07-13T07:55:37;20.20;99.90
16655;DHT22;8441;51.344;7.022;2023-07-13T07:58:06;20.20;99.90
16655;DHT22;8441;51.344;7.022;2023-07-13T08:00:33;20.50;99.90
16655;DHT22;8441;51.344;7.022;2023-07-13T08:03:01;20.70;99.90
16655;DHT22;8441;51.344;7.022;2023-07-13T08:05:28;20.60;99.90
16655;DHT22;8441;51.344;7.022;2023-07-13T08:07:56;20.80;99.90
16655;DHT22;8441;51.344;7.022;2023-07-13T08:10:23;21.10;99.90
16655;DHT22;8441;51.344;7.022;2023-07-13T08:12:50;21.30;99.90
16655;DHT22;8441;51.344;7.022;2023-07-13T08:15:19;21.40;99.90
16655;DHT22;8441;51.344;7.022;2023-07-13T08:17:47;21.30;99.90
16655;DHT22;8441;51.344;7.022;2023-07-13T08:20:15;21.20;99.90
16655;DHT22;8441;51.344;7.022;2023-07-13T08:22:43;21.10;99.90
16655;DHT22;8441;51.344;7.022;2023-07-13T08:25:10;20.90;99.90
16655;DHT22;8441;51.344;7.022;2023-07-13T08:27:37;20.90;99.90
16655;DHT22;8441;51.344;7.022;2023-07-13T08:30:05;20.90;99.90
16655;DHT22;8441;51.344;7.022;2023-07-13T08:32:36;20.90;99.90
16655;DHT22;8441;51.344;7.022;2023-07-13T08:35:04;20.90;99.90
16655;DHT22;8441;51.344;7.022;2023-07-13T08:37:31;21.00;99.90
16655;DHT22;8441;51.344;7.022;2023-07-13T08:39:58;21.20;99.90
16655;DHT22;8441;51.344;7.022;2023-07-13T08:42:35;21.10;99.90
16655;DHT22;8441;51.344;7.022;2023-07-13T08:45:17;20.80;99.90
16655;DHT22;8441;51.344;7.022;2023-07-13T08:47:51;20.90;99.90
16655;DHT22;8441;51.344;7.022;2023-07-13T08:50:23;21.00;99.90
16655;DHT22;8441;51.344;7.022;2023-07-13T08:52:53;20.90;99.90
16655;DHT22;8441;51.344;7.022;2023-07-13T08:55:25;20.70;99.90
16655;DHT22;8441;51.344;7.022;2023-07-13T08:58:01;20.80;99.90
16655;DHT22;8441;51.344;7.022;2023-07-13T09:00:36;21.00;99.90
16655;DHT22;8441;51.344;7.022;2023-07-13T09:03:12;21.30;99.90
16655;DHT22;8441;51.344;7.022;2023-07-13T09:05:49;21.30;99.90
16655;DHT22;8441;51.344;7.022;2023-07-13T09:08:34;21.50;99.90
16655;DHT22;8441;51.344;7.022;2023-07-13T09:11:13;21.50;99.90
16655;DHT22;8441;51.344;7.022;2023-07-13T09:13:47;21.60;99.90
16655;DHT22;8441;51.344;7.022;2023-07-13T09:16:19;21.70;99.90
16655;DHT22;8441;51.344;7.022;2023-07-13T09:18:51;21.90;99.90
16655;DHT22;8441;51.344;7.022;2023-07-13T09:21:23;21.90;99.90
16655;DHT22;8441;51.344;7.022;2023-07-13T09:23:53;22.10;99.90
16655;DHT22;8441;51.344;7.022;2023-07-13T09:26:23;22.70;99.90
16655;DHT22;8441;51.344;7.022;2023-07-13T09:28:53;22.90;99.90
16655;DHT22;8441;51.344;7.022;2023-07-13T09:31:26;23.30;99.90
16655;DHT22;8441;51.344;7.022;2023-07-13T09:33:58;23.40;99.90
16655;DHT22;8441;51.344;7.022;2023-07-13T09:36:28;23.50;99.90
16655;DHT22;8441;51.344;7.022;2023-07-13T09:38:59;23.40;99.90
16655;DHT22;8441;51.344;7.022;2023-07-13T09:41:36;23.30;99.90
16655;DHT22;8441;51.344;7.022;2023-07-13T09:44:08;23.50;99.90
16655;DHT22;8441;51.344;7.022;2023-07-13T09:46:38;23.40;99.90
16655;DHT22;8441;51.344;7.022;2023-07-13T09:49:09;23.30;99.90
16655;DHT22;8441;51.344;7.022;2023-07-13T09:51:37;23.20;99.90
16655;DHT22;8441;51.344;7.022;2023-07-13T09:54:04;23.00;99.90
16655;DHT22;8441;51.344;7.022;2023-07-13T09:56:31;23.00;99.90
16655;DHT22;8441;51.344;7.022;2023-07-13T09:58:59;23.00;99.90
16655;DHT22;8441;51.344;7.022;2023-07-13T10:01:34;23.20;99.90
16655;DHT22;8441;51.344;7.022;2023-07-13T10:04:02;23.40;99.90
16655;DHT22;8441;51.344;7.022;2023-07-13T10:06:39;23.60;99.90
16655;DHT22;8441;51.344;7.022;2023-07-13T10:09:09;23.90;99.90
16655;DHT22;8441;51.344;7.022;2023-07-13T10:11:38;23.70;99.90
16655;DHT22;8441;51.344;7.022;2023-07-13T10:14:12;23.30;99.90
16655;DHT22;8441;51.344;7.022;2023-07-13T10:16:42;22.90;99.90
16655;DHT22;8441;51.344;7.022;2023-07-13T10:19:13;22.80;99.90
16655;DHT22;8441;51.344;7.022;2023-07-13T10:21:50;22.60;99.90
16655;DHT22;8441;51.344;7.022;2023-07-13T10:24:22;23.10;99.90
16655;DHT22;8441;51.344;7.022;2023-07-13T10:26:55;23.40;99.90
16655;DHT22;8441;51.344;7.022;2023-07-13T10:29:25;23.20;99.90
16655;DHT22;8441;51.344;7.022;2023-07-13T10:31:53;23.50;99.90
16655;DHT22;8441;51.344;7.022;2023-07-13T10:34:23;23.70;99.90
16655;DHT22;8441;51.344;7.022;2023-07-13T10:36:51;24.10;99.90
16655;DHT22;8441;51.344;7.022;2023-07-13T10:39:21;24.70;99.90
16655;DHT22;8441;51.344;7.022;2023-07-13T10:41:53;24.60;99.90
16655;DHT22;8441;51.344;7.022;2023-07-13T10:44:24;24.40;99.90
16655;DHT22;8441;51.344;7.022;2023-07-13T10:46:57;24.30;99.90
16655;DHT22;8441;51.344;7.022;2023-07-13T10:49:27;24.10;99.90
16655;DHT22;8441;51.344;7.022;2023-07-13T10:51:56;23.70;99.90
16655;DHT22;8441;51.344;7.022;2023-07-13T10:54:27;23.70;99.90
16655;DHT22;8441;51.344;7.022;2023-07-13T10:57:18;23.80;99.90
16655;DHT22;8441;51.344;7.022;2023-07-13T10:59:48;24.20;99.90
16655;DHT22;8441;51.344;7.022;2023-07-13T11:02:26;24.80;99.90
16655;DHT22;8441;51.344;7.022;2023-07-13T11:04:56;24.90;99.90
16655;DHT22;8441;51.344;7.022;2023-07-13T11:07:27;24.30;99.90
16655;DHT22;8441;51.344;7.022;2023-07-13T11:09:56;24.10;99.90
16655;DHT22;8441;51.344;7.022;2023-07-13T11:15:11;23.80;99.90
16655;DHT22;8441;51.344;7.022;2023-07-13T11:17:50;23.80;99.90
16655;DHT22;8441;51.344;7.022;2023-07-13T11:20:23;23.90;99.90
16655;DHT22;8441;51.344;7.022;2023-07-13T11:23:16;24.00;99.90
16655;DHT22;8441;51.344;7.022;2023-07-13T11:25:45;24.00;99.90
16655;DHT22;8441;51.344;7.022;2023-07-13T11:28:23;23.90;99.90
16655;DHT22;8441;51.344;7.022;2023-07-13T11:31:12;23.80;99.90
16655;DHT22;8441;51.344;7.022;2023-07-13T11:33:51;24.00;99.90
16655;DHT22;8441;51.344;7.022;2023-07-13T11:36:20;24.20;99.90
16655;DHT22;8441;51.344;7.022;2023-07-13T11:38:57;24.40;99.90
16655;DHT22;8441;51.344;7.022;2023-07-13T11:41:28;24.40;99.90
16655;DHT22;8441;51.344;7.022;2023-07-13T11:44:08;24.30;99.90
16655;DHT22;8441;51.344;7.022;2023-07-13T11:46:37;24.30;99.90
16655;DHT22;8441;51.344;7.022;2023-07-13T11:49:05;24.30;99.90
16655;DHT22;8441;51.344;7.022;2023-07-13T11:51:35;24.10;99.90
16655;DHT22;8441;51.344;7.022;2023-07-13T11:54:06;24.10;99.90
16655;DHT22;8441;51.344;7.022;2023-07-13T11:56:34;24.20;99.90
16655;DHT22;8441;51.344;7.022;2023-07-13T11:59:07;24.30;99.90
16655;DHT22;8441;51.344;7.022;2023-07-13T12:01:36;24.50;99.90
16655;DHT22;8441;51.344;7.022;2023-07-13T12:06:42;24.90;99.90
16655;DHT22;8441;51.344;7.022;2023-07-13T12:09:12;25.20;99.90
16655;DHT22;8441;51.344;7.022;2023-07-13T12:11:42;25.30;99.90
16655;DHT22;8441;51.344;7.022;2023-07-13T12:14:14;25.00;99.90
16655;DHT22;8441;51.344;7.022;2023-07-13T12:16:43;24.60;99.90
16655;DHT22;8441;51.344;7.022;2023-07-13T12:19:17;24.60;99.90
16655;DHT22;8441;51.344;7.022;2023-07-13T12:21:45;24.20;99.90
16655;DHT22;8441;51.344;7.022;2023-07-13T12:24:17;24.20;99.90
16655;DHT22;8441;51.344;7.022;2023-07-13T12:26:49;24.10;99.90
16655;DHT22;8441;51.344;7.022;2023-07-13T12:29:17;24.30;99.90
16655;DHT22;8441;51.344;7.022;2023-07-13T12:31:46;24.60;99.90
16655;DHT22;8441;51.344;7.022;2023-07-13T12:34:16;24.80;99.90
16655;DHT22;8441;51.344;7.022;2023-07-13T12:36:47;24.90;99.90
16655;DHT22;8441;51.344;7.022;2023-07-13T12:39:19;25.20;99.90
16655;DHT22;8441;51.344;7.022;2023-07-13T12:41:48;25.50;99.90
16655;DHT22;8441;51.344;7.022;2023-07-13T12:44:25;25.30;99.90
16655;DHT22;8441;51.344;7.022;2023-07-13T12:46:57;24.90;99.90
16655;DHT22;8441;51.344;7.022;2023-07-13T12:49:29;25.00;99.90
16655;DHT22;8441;51.344;7.022;2023-07-13T12:51:59;25.20;99.90
16655;DHT22;8441;51.344;7.022;2023-07-13T12:54:29;25.00;99.90
16655;DHT22;8441;51.344;7.022;2023-07-13T12:56:58;24.70;99.90
16655;DHT22;8441;51.344;7.022;2023-07-13T12:59:31;24.50;99.90
16655;DHT22;8441;51.344;7.022;2023-07-13T13:02:02;24.60;99.90
16655;DHT22;8441;51.344;7.022;2023-07-13T13:04:30;24.70;99.90
16655;DHT22;8441;51.344;7.022;2023-07-13T13:07:02;24.70;99.90
16655;DHT22;8441;51.344;7.022;2023-07-13T13:09:30;24.50;99.90
16655;DHT22;8441;51.344;7.022;2023-07-13T13:11:58;24.10;99.90
16655;DHT22;8441;51.344;7.022;2023-07-13T13:14:25;23.80;99.90
16655;DHT22;8441;51.344;7.022;2023-07-13T13:16:53;23.60;99.90
16655;DHT22;8441;51.344;7.022;2023-07-13T13:19:23;23.30;99.90
16655;DHT22;8441;51.344;7.022;2023-07-13T13:21:51;23.10;99.90
16655;DHT22;8441;51.344;7.022;2023-07-13T13:24:20;23.00;99.90
16655;DHT22;8441;51.344;7.022;2023-07-13T13:26:50;22.90;99.90
16655;DHT22;8441;51.344;7.022;2023-07-13T13:29:20;22.90;99.90
16655;DHT22;8441;51.344;7.022;2023-07-13T13:31:50;23.00;99.90
16655;DHT22;8441;51.344;7.022;2023-07-13T13:34:18;23.40;99.90
16655;DHT22;8441;51.344;7.022;2023-07-13T13:36:46;24.00;99.90
16655;DHT22;8441;51.344;7.022;2023-07-13T13:39:20;24.40;99.90
16655;DHT22;8441;51.344;7.022;2023-07-13T13:41:51;25.00;99.90
16655;DHT22;8441;51.344;7.022;2023-07-13T13:44:19;25.30;99.90
16655;DHT22;8441;51.344;7.022;2023-07-13T13:46:49;25.70;99.90
16655;DHT22;8441;51.344;7.022;2023-07-13T13:49:22;25.90;99.90
16655;DHT22;8441;51.344;7.022;2023-07-13T13:51:50;25.70;99.90
16655;DHT22;8441;51.344;7.022;2023-07-13T13:54:19;25.60;99.90
16655;DHT22;8441;51.344;7.022;2023-07-13T13:56:49;25.30;99.90
16655;DHT22;8441;51.344;7.022;2023-07-13T13:59:17;25.10;99.90
16655;DHT22;8441;51.344;7.022;2023-07-13T14:01:45;24.60;99.90
16655;DHT22;8441;51.344;7.022;2023-07-13T14:04:16;24.00;99.90
16655;DHT22;8441;51.344;7.022;2023-07-13T14:06:44;23.00;99.90
16655;DHT22;8441;51.344;7.022;2023-07-13T14:09:14;21.90;99.90
16655;DHT22;8441;51.344;7.022;2023-07-13T14:11:41;21.20;99.90
16655;DHT22;8441;51.344;7.022;2023-07-13T14:14:14;20.80;99.90
16655;DHT22;8441;51.344;7.022;2023-07-13T14:16:44;20.80;99.90
16655;DHT22;8441;51.344;7.022;2023-07-13T14:19:12;21.10;99.90
16655;DHT22;8441;51.344;7.022;2023-07-13T14:21:40;21.50;99.90
16655;DHT22;8441;51.344;7.022;2023-07-13T14:24:07;22.10;99.90
16655;DHT22;8441;51.344;7.022;2023-07-13T14:26:37;22.50;99.90
16655;DHT22;8441;51.344;7.022;2023-07-13T14:29:13;22.90;99.90
16655;DHT22;8441;51.344;7.022;2023-07-13T14:31:42;23.00;99.90
16655;DHT22;8441;51.344;7.022;2023-07-13T14:34:11;22.80;99.90
16655;DHT22;8441;51.344;7.022;2023-07-13T14:36:40;22.80;99.90
16655;DHT22;8441;51.344;7.022;2023-07-13T14:39:13;22.80;99.90
16655;DHT22;8441;51.344;7.022;2023-07-13T14:41:42;23.10;99.90
16655;DHT22;8441;51.344;7.022;2023-07-13T14:44:15;23.20;99.90
16655;DHT22;8441;51.344;7.022;2023-07-13T14:46:44;23.10;99.90
16655;DHT22;8441;51.344;7.022;2023-07-13T14:49:16;23.00;99.90
16655;DHT22;8441;51.344;7.022;2023-07-13T14:51:48;22.80;99.90
16655;DHT22;8441;51.344;7.022;2023-07-13T14:54:15;22.80;99.90
16655;DHT22;8441;51.344;7.022;2023-07-13T14:56:42;22.80;99.90
16655;DHT22;8441;51.344;7.022;2023-07-13T14:59:10;23.00;99.90
16655;DHT22;8441;51.344;7.022;2023-07-13T15:01:40;22.90;99.90
16655;DHT22;8441;51.344;7.022;2023-07-13T15:04:07;22.50;99.90
16655;DHT22;8441;51.344;7.022;2023-07-13T15:06:53;22.60;99.90
16655;DHT22;8441;51.344;7.022;2023-07-13T15:09:21;22.40;99.90
16655;DHT22;8441;51.344;7.022;2023-07-13T15:11:50;21.90;99.90
16655;DHT22;8441;51.344;7.022;2023-07-13T15:14:17;21.50;99.90
16655;DHT22;8441;51.344;7.022;2023-07-13T15:16:46;21.50;99.90
16655;DHT22;8441;51.344;7.022;2023-07-13T15:19:15;21.50;99.90
16655;DHT22;8441;51.344;7.022;2023-07-13T15:21:43;21.40;99.90
16655;DHT22;8441;51.344;7.022;2023-07-13T15:24:11;21.40;99.90
16655;DHT22;8441;51.344;7.022;2023-07-13T15:26:38;21.30;99.90
16655;DHT22;8441;51.344;7.022;2023-07-13T15:29:06;21.40;99.90
16655;DHT22;8441;51.344;7.022;2023-07-13T15:31:33;21.20;99.90
16655;DHT22;8441;51.344;7.022;2023-07-13T15:34:11;21.20;99.90
16655;DHT22;8441;51.344;7.022;2023-07-13T15:36:39;20.80;99.90
16655;DHT22;8441;51.344;7.022;2023-07-13T15:39:08;19.90;99.90
16655;DHT22;8441;51.344;7.022;2023-07-13T15:41:40;19.40;99.90
16655;DHT22;8441;51.344;7.022;2023-07-13T15:44:22;19.00;99.90
16655;DHT22;8441;51.344;7.022;2023-07-13T15:46:50;18.80;99.90
16655;DHT22;8441;51.344;7.022;2023-07-13T15:49:19;18.60;99.90
16655;DHT22;8441;51.344;7.022;2023-07-13T15:51:47;18.60;99.90
16655;DHT22;8441;51.344;7.022;2023-07-13T15:54:16;18.70;99.90
16655;DHT22;8441;51.344;7.022;2023-07-13T15:56:49;18.90;99.90
16655;DHT22;8441;51.344;7.022;2023-07-13T15:59:18;19.10;99.90
16655;DHT22;8441;51.344;7.022;2023-07-13T16:01:45;19.30;99.90
16655;DHT22;8441;51.344;7.022;2023-07-13T16:04:15;19.50;99.90